Jena Marie C. — WDD4969 — position and weather

sailwx.info

Track history (hours):
 
Tides and Currents Weather Stations Pressure Air Temp Water Temp Dewpoint Dewpoint Depression Visibility Wind Speed Wind Dir Waves Ship Positions

Jena Marie C.

Owner: Scott C. Marine Towing, LLC, Marrero, LA. More information available from US FCC via Universal Licensing System and Coast Guard Vessel Documentation Center.

Last reported at 2015-Mar-25 20:25 UTC. Time now 2015-Mar-26 19:18 UTC.
Position N 29°56' W 090°08'.

Length 19 m; draft 2.5 m.

Type: Towing. MMSI: 367151880.

Date/timePositionNaut miles runAvg speedWind from/ knotsBaromVisibWave heightAir tempDewpointWater temp
2015-Mar-25 20:25N 29°56' W 090°08'2 1.0
2015-Mar-25 18:33N 29°56' W 090°10'4 3.3
2015-Mar-25 17:25N 29°55' W 090°07'2 1.6
2015-Mar-25 16:24N 29°55' W 090°05'2 0.1
2015-Mar-25 01:24N 29°55' W 090°07'1 1.1
2015-Mar-25 00:05N 29°55' W 090°06'1 0.8
2015-Mar-24 23:18N 29°55' W 090°05'2 2.3
2015-Mar-24 22:27N 29°55' W 090°07'2 0.2
2015-Mar-24 13:05N 29°56' W 090°08'2 3.3
2015-Mar-24 12:33N 29°55' W 090°08'2 2.4
2015-Mar-24 11:32N 29°55' W 090°05'5 3.7
2015-Mar-24 10:13N 29°56' W 090°10'1 0.8
2015-Mar-24 08:23N 29°57' W 090°09'2 2.3
2015-Mar-24 07:22N 29°55' W 090°07'1 0.0
2015-Mar-23 01:19N 29°55' W 090°08'2 2.2
2015-Mar-23 00:17N 29°55' W 090°06'1 1.3
2015-Mar-22 23:28N 29°55' W 090°04'0 0.1
2015-Mar-22 22:30N 29°55' W 090°04'1 0.6
2015-Mar-22 21:31N 29°55' W 090°05'1 0.6
2015-Mar-22 20:31N 29°55' W 090°05'1 1.1
2015-Mar-22 19:33N 29°55' W 090°04'0 0.0
2015-Mar-22 18:32N 29°55' W 090°04'1 0.6
2015-Mar-22 17:33N 29°55' W 090°05'0 0.1
2015-Mar-22 16:33N 29°55' W 090°05'1 0.0
2015-Mar-21 17:12N 29°55' W 090°04'2 0.4
2015-Mar-21 10:19N 29°55' W 090°07'1 0.4
2015-Mar-21 07:31N 29°55' W 090°08'3 3.0
2015-Mar-21 06:32N 29°55' W 090°05'0 0.0
2015-Mar-21 05:30N 29°55' W 090°05'0 0.1
2015-Mar-21 04:19N 29°55' W 090°05'0 0.1
2015-Mar-21 03:33N 29°55' W 090°05'0 0.1
2015-Mar-21 02:33N 29°55' W 090°05'1 1.0
2015-Mar-21 01:33N 29°55' W 090°06'3 0.1
2015-Mar-20 03:07N 29°57' W 090°09'1 0.5
2015-Mar-20 00:28N 29°56' W 090°08'0 0.4
2015-Mar-19 23:15N 29°55' W 090°08'2 0.2
2015-Mar-19 10:21N 29°57' W 090°11'0 0.0
2015-Mar-19 08:23N 29°57' W 090°11'2 0.2
2015-Mar-18 22:18N 29°57' W 090°09'2 2.0
2015-Mar-18 21:22N 29°56' W 090°08'2 2.2
2015-Mar-18 20:32N 29°55' W 090°06'2 2.0
2015-Mar-18 19:32N 29°55' W 090°04'2 1.7
2015-Mar-18 18:33N 29°57' W 090°04'1 0.6
2015-Mar-18 17:32N 29°58' W 090°03'1 0.8
2015-Mar-18 16:32N 29°57' W 090°04'4 0.1
2015-Mar-17 04:30N 29°56' W 090°08'  
Track history (hours):
 
Tides and Currents Weather Stations Pressure Air Temp Water Temp Dewpoint Dewpoint Depression Visibility Wind Speed Wind Dir Waves Ship Positions

Jena Marie C.

Owner: Scott C. Marine Towing, LLC, Marrero, LA. More information available from US FCC via Universal Licensing System and Coast Guard Vessel Documentation Center.

Last reported at 2015-Mar-25 20:25 UTC. Time now 2015-Mar-26 19:18 UTC.
Position N 29°56' W 090°08'.

Length 19 m; draft 2.5 m.

Type: Towing. MMSI: 367151880.

Date/timePositionNaut miles runAvg speedWind from/ knotsBaromVisibWave heightAir tempDewpointWater temp
2015-Mar-25 20:25N 29°56' W 090°08'2 1.0
2015-Mar-25 18:33N 29°56' W 090°10'4 3.3
2015-Mar-25 17:25N 29°55' W 090°07'2 1.6
2015-Mar-25 16:24N 29°55' W 090°05'2 0.1
2015-Mar-25 01:24N 29°55' W 090°07'1 1.1
2015-Mar-25 00:05N 29°55' W 090°06'1 0.8
2015-Mar-24 23:18N 29°55' W 090°05'2 2.3
2015-Mar-24 22:27N 29°55' W 090°07'2 0.2
2015-Mar-24 13:05N 29°56' W 090°08'2 3.3
2015-Mar-24 12:33N 29°55' W 090°08'2 2.4
2015-Mar-24 11:32N 29°55' W 090°05'5 3.7
2015-Mar-24 10:13N 29°56' W 090°10'1 0.8
2015-Mar-24 08:23N 29°57' W 090°09'2 2.3
2015-Mar-24 07:22N 29°55' W 090°07'1 0.0
2015-Mar-23 01:19N 29°55' W 090°08'2 2.2
2015-Mar-23 00:17N 29°55' W 090°06'1 1.3
2015-Mar-22 23:28N 29°55' W 090°04'0 0.1
2015-Mar-22 22:30N 29°55' W 090°04'1 0.6
2015-Mar-22 21:31N 29°55' W 090°05'1 0.6
2015-Mar-22 20:31N 29°55' W 090°05'1 1.1
2015-Mar-22 19:33N 29°55' W 090°04'0 0.0
2015-Mar-22 18:32N 29°55' W 090°04'1 0.6
2015-Mar-22 17:33N 29°55' W 090°05'0 0.1
2015-Mar-22 16:33N 29°55' W 090°05'1 0.0
2015-Mar-21 17:12N 29°55' W 090°04'2 0.4
2015-Mar-21 10:19N 29°55' W 090°07'1 0.4
2015-Mar-21 07:31N 29°55' W 090°08'3 3.0
2015-Mar-21 06:32N 29°55' W 090°05'0 0.0
2015-Mar-21 05:30N 29°55' W 090°05'0 0.1
2015-Mar-21 04:19N 29°55' W 090°05'0 0.1
2015-Mar-21 03:33N 29°55' W 090°05'0 0.1
2015-Mar-21 02:33N 29°55' W 090°05'1 1.0
2015-Mar-21 01:33N 29°55' W 090°06'3 0.1
2015-Mar-20 03:07N 29°57' W 090°09'1 0.5
2015-Mar-20 00:28N 29°56' W 090°08'0 0.4
2015-Mar-19 23:15N 29°55' W 090°08'2 0.2
2015-Mar-19 10:21N 29°57' W 090°11'0 0.0
2015-Mar-19 08:23N 29°57' W 090°11'2 0.2
2015-Mar-18 22:18N 29°57' W 090°09'2 2.0
2015-Mar-18 21:22N 29°56' W 090°08'2 2.2
2015-Mar-18 20:32N 29°55' W 090°06'2 2.0
2015-Mar-18 19:32N 29°55' W 090°04'2 1.7
2015-Mar-18 18:33N 29°57' W 090°04'1 0.6
2015-Mar-18 17:32N 29°58' W 090°03'1 0.8
2015-Mar-18 16:32N 29°57' W 090°04'4 0.1
2015-Mar-17 04:30N 29°56' W 090°08'  

Dump ship's entire track history